Time;durP1;ratioP1;P1;durP2;ratioP2;P2;SDS_P1;SDS_P2;PMS_P1;PMS_P2;Temp;Humidity;BMP_temperature;BMP_pressure;BME280_temperature;BME280_humidity;BME280_pressure;Samples;Min_cycle;Max_cycle;Signal;HPM_P1;HPM_P2
2022/01/05 00:00:07;;;;;;;13.82;1.95;;;;;;;;;;4995909;28;20492;-74
2022/01/05 00:02:33;;;;;;;3.58;1.50;;;;;;;;;;4995931;28;20030;-74
2022/01/05 00:04:59;;;;;;;4.45;1.33;;;;;;;;;;4995790;28;20049;-74
2022/01/05 00:07:25;;;;;;;5.75;1.27;;;;;;;;;;4995652;28;20030;-74
2022/01/05 00:09:51;;;;;;;5.03;1.25;;;;;;;;;;4995630;28;20035;-74
2022/01/05 00:12:17;;;;;;;6.22;1.40;;;;;;;;;;4995470;28;20045;-74
2022/01/05 00:14:43;;;;;;;5.60;1.27;;;;;;;;;;4995601;28;20358;-74
2022/01/05 00:17:09;;;;;;;5.00;1.25;;;;;;;;;;4995472;28;20041;-73
2022/01/05 00:19:35;;;;;;;5.53;1.98;;;;;;;;;;4977853;28;20055;-73
2022/01/05 00:22:01;;;;;;;6.53;1.00;;;;;;;;;;4995318;28;20062;-73
2022/01/05 00:24:27;;;;;;;5.30;1.20;;;;;;;;;;4978126;28;20073;-73
2022/01/05 00:26:53;;;;;;;3.35;1.00;;;;;;;;;;4977964;28;20030;-73
2022/01/05 00:29:19;;;;;;;4.35;1.10;;;;;;;;;;4976836;28;20407;-73
2022/01/05 00:31:45;;;;;;;5.68;1.50;;;;;;;;;;4958353;28;20052;-73
2022/01/05 00:34:12;;;;;;;5.50;1.13;;;;;;;;;;4976260;28;20462;-73
2022/01/05 00:36:39;;;;;;;5.65;1.35;;;;;;;;;;4975495;28;20030;-74
2022/01/05 00:39:05;;;;;;;4.63;1.50;;;;;;;;;;4975854;28;20023;-73
2022/01/05 00:41:31;;;;;;;4.07;1.20;;;;;;;;;;4975570;28;20034;-73
2022/01/05 00:43:57;;;;;;;3.90;1.20;;;;;;;;;;4975715;28;20027;-72
2022/01/05 00:46:23;;;;;;;9.98;1.77;;;;;;;;;;4975543;28;20085;-73
2022/01/05 00:48:49;;;;;;;4.20;1.15;;;;;;;;;;4975714;28;20394;-73
2022/01/05 00:51:15;;;;;;;4.75;1.27;;;;;;;;;;4975343;28;20046;-73
2022/01/05 00:53:42;;;;;;;5.63;1.50;;;;;;;;;;4958080;28;20030;-72
2022/01/05 00:56:08;;;;;;;8.32;1.60;;;;;;;;;;4975411;28;20105;-72
2022/01/05 00:58:34;;;;;;;8.07;1.35;;;;;;;;;;4975058;28;20062;-72
2022/01/05 01:01:00;;;;;;;8.65;1.65;;;;;;;;;;4975369;28;20026;-72
2022/01/05 01:03:29;;;;;;;6.20;1.60;;;;;;;;;;4975253;28;20520;-72
2022/01/05 01:05:56;;;;;;;5.07;1.55;;;;;;;;;;4975210;28;20035;-73
2022/01/05 01:08:22;;;;;;;8.27;1.50;;;;;;;;;;4975199;28;20026;-73
2022/01/05 01:10:49;;;;;;;4.78;1.30;;;;;;;;;;4975341;28;20045;-72
2022/01/05 01:13:17;;;;;;;7.07;1.60;;;;;;;;;;4975162;28;20058;-74
2022/01/05 01:15:50;;;;;;;5.10;1.50;;;;;;;;;;4957602;28;20030;-72
2022/01/05 01:18:16;;;;;;;5.32;1.50;;;;;;;;;;4957772;28;20019;-73
2022/01/05 01:20:42;;;;;;;7.00;1.50;;;;;;;;;;4974972;28;20070;-73
2022/01/05 01:23:08;;;;;;;7.03;1.60;;;;;;;;;;4975007;28;20085;-72
2022/01/05 01:25:35;;;;;;;5.97;1.80;;;;;;;;;;4974900;28;20025;-73
2022/01/05 01:28:02;;;;;;;4.63;1.17;;;;;;;;;;4974828;28;20106;-72
2022/01/05 01:30:30;;;;;;;8.00;1.55;;;;;;;;;;4974663;28;20046;-72
2022/01/05 01:32:56;;;;;;;4.35;1.30;;;;;;;;;;4957570;28;20066;-72
2022/01/05 01:35:22;;;;;;;5.13;1.70;;;;;;;;;;4974890;28;20062;-72
2022/01/05 01:37:49;;;;;;;6.25;1.60;;;;;;;;;;4957387;28;20035;-72
2022/01/05 01:40:15;;;;;;;11.60;1.52;;;;;;;;;;4974836;28;20077;-72
2022/01/05 01:42:41;;;;;;;11.95;1.90;;;;;;;;;;4957251;28;20501;-72
2022/01/05 01:45:07;;;;;;;9.10;1.63;;;;;;;;;;4974621;28;20048;-72
2022/01/05 01:47:33;;;;;;;5.30;1.40;;;;;;;;;;4974421;28;20470;-72
2022/01/05 01:49:59;;;;;;;8.90;1.77;;;;;;;;;;4957271;28;20453;-72
2022/01/05 01:52:25;;;;;;;7.47;1.70;;;;;;;;;;4974491;28;20502;-71
2022/01/05 01:54:51;;;;;;;6.47;1.55;;;;;;;;;;4974636;28;20117;-72
2022/01/05 01:57:19;;;;;;;8.25;1.92;;;;;;;;;;4974374;28;20039;-72
2022/01/05 01:59:45;;;;;;;10.77;2.10;;;;;;;;;;4974528;28;20035;-72
2022/01/05 02:02:11;;;;;;;4.95;1.67;;;;;;;;;;4974335;28;20086;-72
2022/01/05 02:04:39;;;;;;;9.30;1.75;;;;;;;;;;4974423;28;20346;-72
2022/01/05 02:07:05;;;;;;;7.65;1.60;;;;;;;;;;4957252;28;20114;-72
2022/01/05 02:09:31;;;;;;;9.43;2.28;;;;;;;;;;4974726;28;20066;-71
2022/01/05 02:11:57;;;;;;;8.55;1.95;;;;;;;;;;4961011;28;20031;-71
2022/01/05 02:14:23;;;;;;;12.93;1.65;;;;;;;;;;4978415;28;20027;-71
2022/01/05 02:16:49;;;;;;;5.90;1.88;;;;;;;;;;4960672;28;20085;-71
2022/01/05 02:19:15;;;;;;;6.53;2.00;;;;;;;;;;4957310;29;20491;-71
2022/01/05 02:21:42;;;;;;;8.80;2.22;;;;;;;;;;4958859;29;20027;-71
2022/01/05 02:24:09;;;;;;;7.57;2.08;;;;;;;;;;4958772;28;20019;-69
2022/01/05 02:26:35;;;;;;;14.80;2.60;;;;;;;;;;4978230;28;20478;-70
2022/01/05 02:29:01;;;;;;;10.45;2.60;;;;;;;;;;4978547;28;20039;-71
2022/01/05 02:31:27;;;;;;;10.75;2.92;;;;;;;;;;4977848;28;20035;-72
2022/01/05 02:33:53;;;;;;;12.77;2.30;;;;;;;;;;4977928;28;20383;-72
2022/01/05 02:36:21;;;;;;;16.92;2.50;;;;;;;;;;4976784;28;20390;-71
2022/01/05 02:38:51;;;;;;;19.30;2.00;;;;;;;;;;4978039;28;20026;-72
2022/01/05 02:41:18;;;;;;;12.90;2.45;;;;;;;;;;4976648;28;20034;-71
2022/01/05 02:43:48;;;;;;;14.45;2.00;;;;;;;;;;4977942;28;20030;-71
2022/01/05 02:46:18;;;;;;;9.60;1.90;;;;;;;;;;4976329;28;20030;-71
2022/01/05 02:48:45;;;;;;;10.43;1.98;;;;;;;;;;4976669;28;20567;-71
2022/01/05 02:51:11;;;;;;;10.65;2.20;;;;;;;;;;4976611;28;20042;-70
2022/01/05 02:53:38;;;;;;;7.35;2.17;;;;;;;;;;4977548;28;20111;-71
2022/01/05 02:56:04;;;;;;;10.63;1.77;;;;;;;;;;4977947;28;20507;-71
2022/01/05 02:58:31;;;;;;;8.80;2.17;;;;;;;;;;4977604;28;20046;-71
2022/01/05 03:00:57;;;;;;;7.38;2.20;;;;;;;;;;4977686;28;20034;-70
2022/01/05 03:03:23;;;;;;;8.82;1.67;;;;;;;;;;4977499;28;20106;-71
2022/01/05 03:05:49;;;;;;;10.70;1.90;;;;;;;;;;4977547;28;20110;-70
2022/01/05 03:08:15;;;;;;;7.32;1.58;;;;;;;;;;4977372;28;20560;-70
2022/01/05 03:10:41;;;;;;;8.65;2.17;;;;;;;;;;4977070;28;20038;-70
2022/01/05 03:13:07;;;;;;;7.90;1.80;;;;;;;;;;4977310;28;20478;-70
2022/01/05 03:15:35;;;;;;;9.20;1.98;;;;;;;;;;4976957;28;20102;-70
2022/01/05 03:18:02;;;;;;;9.60;2.10;;;;;;;;;;4976939;28;20390;-70
2022/01/05 03:20:29;;;;;;;6.50;1.80;;;;;;;;;;4991706;28;20047;-71
2022/01/05 03:22:55;;;;;;;4.03;1.30;;;;;;;;;;4995883;28;20014;-70
2022/01/05 03:25:21;;;;;;;10.18;1.65;;;;;;;;;;4978876;28;20050;-70
2022/01/05 03:27:49;;;;;;;5.30;1.30;;;;;;;;;;4996463;28;20398;-72
2022/01/05 03:30:20;;;;;;;5.10;1.70;;;;;;;;;;4978826;28;20389;-73
2022/01/05 03:35:31;;;;;;;8.52;2.00;;;;;;;;;;4996711;28;20528;-75
2022/01/05 03:37:58;;;;;;;6.50;1.83;;;;;;;;;;4979104;28;20504;-74
2022/01/05 03:40:24;;;;;;;7.32;1.95;;;;;;;;;;4978771;28;20056;-75
2022/01/05 03:42:50;;;;;;;5.97;1.60;;;;;;;;;;4978864;28;20471;-74
2022/01/05 03:45:16;;;;;;;6.60;1.30;;;;;;;;;;4996093;28;20125;-75
2022/01/05 03:47:42;;;;;;;4.30;1.65;;;;;;;;;;4978817;28;20042;-75
2022/01/05 03:50:09;;;;;;;4.45;1.40;;;;;;;;;;4995777;28;20482;-75
2022/01/05 03:52:35;;;;;;;6.10;1.70;;;;;;;;;;4978756;28;20022;-74
2022/01/05 03:55:01;;;;;;;7.40;1.95;;;;;;;;;;4995972;28;20150;-74
2022/01/05 03:57:27;;;;;;;5.70;1.60;;;;;;;;;;4995966;28;20033;-72
2022/01/05 03:59:53;;;;;;;7.00;1.80;;;;;;;;;;4978237;28;20027;-72
2022/01/05 04:02:19;;;;;;;5.95;1.50;;;;;;;;;;4995668;28;20030;-72
2022/01/05 04:04:46;;;;;;;6.50;1.80;;;;;;;;;;4995816;28;20153;-71
2022/01/05 04:07:13;;;;;;;4.82;1.70;;;;;;;;;;4995562;28;20018;-70
2022/01/05 04:09:39;;;;;;;11.68;1.63;;;;;;;;;;4995694;28;20041;-73
2022/01/05 04:12:05;;;;;;;22.60;1.58;;;;;;;;;;4995419;28;20136;-71
2022/01/05 04:14:31;;;;;;;6.63;1.67;;;;;;;;;;4995173;28;20454;-70
2022/01/05 04:16:57;;;;;;;6.72;1.60;;;;;;;;;;4995310;28;20034;-69
2022/01/05 04:19:23;;;;;;;7.10;1.85;;;;;;;;;;4995115;28;20116;-71
2022/01/05 04:21:49;;;;;;;5.60;1.58;;;;;;;;;;4977547;28;20058;-71
2022/01/05 04:24:15;;;;;;;6.15;1.77;;;;;;;;;;4995170;28;20061;-69
2022/01/05 04:26:41;;;;;;;5.07;1.50;;;;;;;;;;4995001;28;20030;-72
2022/01/05 04:29:07;;;;;;;6.70;1.60;;;;;;;;;;4978135;28;20038;-69
2022/01/05 04:31:33;;;;;;;4.25;1.50;;;;;;;;;;4975370;28;20035;-71
2022/01/05 04:33:59;;;;;;;5.20;1.60;;;;;;;;;;4975237;28;20027;-73
2022/01/05 04:36:26;;;;;;;6.00;1.65;;;;;;;;;;4958559;28;20026;-73
2022/01/05 04:38:52;;;;;;;4.22;1.65;;;;;;;;;;4975915;28;20058;-70
2022/01/05 04:41:18;;;;;;;6.18;1.52;;;;;;;;;;4975787;28;20166;-74
2022/01/05 04:43:43;;;;;;;11.45;2.10;;;;;;;;;;4975699;28;20023;-74
2022/01/05 04:46:09;;;;;;;7.03;1.98;;;;;;;;;;4975470;28;20031;-74
2022/01/05 04:48:36;;;;;;;11.57;1.77;;;;;;;;;;4975474;28;20031;-72
2022/01/05 04:51:02;;;;;;;8.88;1.70;;;;;;;;;;4975491;28;20023;-74
2022/01/05 04:53:28;;;;;;;8.18;1.90;;;;;;;;;;4975448;28;20031;-73
2022/01/05 04:55:54;;;;;;;6.20;2.00;;;;;;;;;;4975829;28;20034;-73
2022/01/05 04:58:21;;;;;;;6.53;1.70;;;;;;;;;;4975531;28;20030;-72
2022/01/05 05:00:47;;;;;;;5.85;1.60;;;;;;;;;;4975606;28;20034;-73
2022/01/05 05:03:13;;;;;;;8.13;2.03;;;;;;;;;;4975322;28;20106;-74
2022/01/05 05:05:39;;;;;;;8.95;1.83;;;;;;;;;;4975499;28;20030;-75
2022/01/05 05:08:05;;;;;;;5.22;1.65;;;;;;;;;;4975204;28;20481;-72
2022/01/05 05:10:31;;;;;;;9.23;2.22;;;;;;;;;;4957932;28;20039;-71
2022/01/05 05:12:58;;;;;;;5.45;1.70;;;;;;;;;;4975261;28;20478;-75
2022/01/05 05:15:24;;;;;;;5.25;1.80;;;;;;;;;;4957774;28;20031;-74
2022/01/05 05:17:50;;;;;;;8.70;1.85;;;;;;;;;;4975009;28;20094;-75
2022/01/05 05:20:16;;;;;;;5.53;1.95;;;;;;;;;;4974989;28;20050;-73
2022/01/05 05:22:42;;;;;;;8.98;1.60;;;;;;;;;;4974940;28;20027;-72
2022/01/05 05:25:08;;;;;;;11.63;2.33;;;;;;;;;;4975105;28;20521;-76
2022/01/05 05:27:34;;;;;;;4.95;1.52;;;;;;;;;;4975190;28;20073;-72
2022/01/05 05:30:00;;;;;;;10.13;2.25;;;;;;;;;;4974971;28;20446;-72
2022/01/05 05:32:26;;;;;;;12.07;1.95;;;;;;;;;;4957483;28;20070;-72
2022/01/05 05:34:52;;;;;;;6.30;1.45;;;;;;;;;;4974900;28;20466;-71
2022/01/05 05:37:17;;;;;;;9.63;2.28;;;;;;;;;;4974925;28;20027;-72
2022/01/05 05:39:44;;;;;;;16.17;2.35;;;;;;;;;;4974656;28;20027;-71
2022/01/05 05:42:10;;;;;;;12.40;2.10;;;;;;;;;;4974986;28;20058;-72
2022/01/05 05:44:37;;;;;;;7.82;2.15;;;;;;;;;;4973828;28;20027;-72
2022/01/05 05:47:05;;;;;;;13.57;1.95;;;;;;;;;;4974409;28;20031;-71
2022/01/05 05:49:31;;;;;;;8.98;1.90;;;;;;;;;;4974479;28;20031;-72
2022/01/05 05:51:57;;;;;;;14.98;2.40;;;;;;;;;;4974388;28;20046;-71
2022/01/05 05:54:23;;;;;;;6.65;1.60;;;;;;;;;;4957423;28;20093;-71
2022/01/05 05:56:49;;;;;;;11.05;1.90;;;;;;;;;;4974526;28;20455;-71
2022/01/05 05:59:15;;;;;;;9.00;1.80;;;;;;;;;;4974396;28;20026;-71
2022/01/05 06:01:41;;;;;;;6.78;1.90;;;;;;;;;;4974708;28;20037;-72
2022/01/05 06:04:07;;;;;;;11.38;2.22;;;;;;;;;;4974602;28;20027;-71
2022/01/05 06:06:33;;;;;;;5.40;1.45;;;;;;;;;;4974536;28;20434;-71
2022/01/05 06:08:59;;;;;;;6.18;1.70;;;;;;;;;;4974374;28;20393;-71
2022/01/05 06:11:25;;;;;;;22.42;2.53;;;;;;;;;;4956957;28;20470;-72
2022/01/05 06:13:52;;;;;;;21.20;2.70;;;;;;;;;;4974329;28;20026;-69
2022/01/05 06:16:18;;;;;;;22.35;2.30;;;;;;;;;;4973946;28;20019;-70
2022/01/05 06:18:45;;;;;;;15.60;2.38;;;;;;;;;;4973789;28;20034;-71
2022/01/05 06:21:10;;;;;;;7.65;2.10;;;;;;;;;;4973909;28;20378;-70
2022/01/05 06:23:36;;;;;;;17.13;2.13;;;;;;;;;;4974164;28;20462;-74
2022/01/05 06:26:02;;;;;;;18.35;1.95;;;;;;;;;;4974198;28;20031;-73
2022/01/05 06:28:28;;;;;;;12.82;2.10;;;;;;;;;;4985972;28;20038;-73
2022/01/05 06:30:54;;;;;;;9.02;2.25;;;;;;;;;;4993558;28;20030;-72
2022/01/05 06:33:20;;;;;;;12.05;1.98;;;;;;;;;;4993843;28;20018;-73
2022/01/05 06:35:46;;;;;;;11.80;2.40;;;;;;;;;;4993643;28;20454;-72
2022/01/05 06:38:12;;;;;;;21.23;2.33;;;;;;;;;;4993635;28;20042;-74
2022/01/05 06:40:38;;;;;;;11.48;2.20;;;;;;;;;;4976290;28;20062;-72
2022/01/05 06:43:04;;;;;;;7.10;1.92;;;;;;;;;;4976511;28;20377;-72
2022/01/05 06:45:31;;;;;;;15.50;1.70;;;;;;;;;;4993710;28;20458;-72
2022/01/05 06:47:58;;;;;;;10.73;2.05;;;;;;;;;;4993624;28;20105;-73
2022/01/05 06:50:24;;;;;;;10.68;2.10;;;;;;;;;;4993306;28;20072;-72
2022/01/05 06:52:50;;;;;;;11.55;2.45;;;;;;;;;;4993490;28;20077;-72
2022/01/05 06:55:17;;;;;;;10.70;2.20;;;;;;;;;;4993543;28;20027;-74
2022/01/05 06:57:43;;;;;;;12.80;2.20;;;;;;;;;;4965509;28;20027;-75
2022/01/05 07:00:10;;;;;;;7.05;2.17;;;;;;;;;;4969380;28;20046;-68
2022/01/05 07:02:36;;;;;;;9.20;2.38;;;;;;;;;;4988405;28;20031;-68
2022/01/05 07:05:03;;;;;;;9.90;2.30;;;;;;;;;;4989288;28;20044;-69
2022/01/05 07:07:29;;;;;;;10.23;2.33;;;;;;;;;;4977290;28;20354;-72
2022/01/05 07:09:55;;;;;;;9.38;2.22;;;;;;;;;;4959716;28;20521;-65
2022/01/05 07:12:21;;;;;;;19.02;2.30;;;;;;;;;;4977033;28;20038;-71
2022/01/05 07:14:47;;;;;;;9.88;2.42;;;;;;;;;;4977219;28;20034;-72
2022/01/05 07:17:13;;;;;;;10.43;2.28;;;;;;;;;;4959747;28;20359;-71
2022/01/05 07:19:39;;;;;;;15.00;2.60;;;;;;;;;;4976967;28;20051;-76
2022/01/05 07:22:05;;;;;;;9.70;2.45;;;;;;;;;;4981545;28;20027;-74
2022/01/05 07:24:30;;;;;;;11.63;2.63;;;;;;;;;;4983501;28;20053;-72
2022/01/05 07:26:56;;;;;;;11.10;2.58;;;;;;;;;;4977132;28;20022;-67
2022/01/05 07:29:22;;;;;;;11.88;2.47;;;;;;;;;;4995751;28;20112;-70
2022/01/05 07:31:49;;;;;;;14.95;2.97;;;;;;;;;;4994043;28;20038;-71
2022/01/05 07:34:16;;;;;;;13.52;2.80;;;;;;;;;;4976984;28;20034;-73
2022/01/05 07:36:42;;;;;;;16.02;2.88;;;;;;;;;;4977151;28;20038;-64
2022/01/05 07:39:09;;;;;;;12.10;2.42;;;;;;;;;;4970846;28;20081;-75
2022/01/05 07:41:35;;;;;;;12.77;2.83;;;;;;;;;;4996289;28;20390;-75
2022/01/05 07:44:01;;;;;;;14.13;3.00;;;;;;;;;;4996584;28;20101;-74
2022/01/05 07:46:28;;;;;;;19.35;3.15;;;;;;;;;;4996656;28;20058;-75
2022/01/05 07:48:54;;;;;;;10.48;2.63;;;;;;;;;;4997535;28;20022;-78
2022/01/05 07:51:20;;;;;;;12.63;2.63;;;;;;;;;;4997693;28;20035;-79
2022/01/05 07:53:46;;;;;;;15.02;3.03;;;;;;;;;;4995716;28;20022;-72
2022/01/05 07:56:12;;;;;;;14.43;2.42;;;;;;;;;;4995867;28;20038;-72
2022/01/05 07:58:38;;;;;;;18.08;3.33;;;;;;;;;;4995929;28;20023;-72
2022/01/05 08:01:04;;;;;;;13.18;2.50;;;;;;;;;;4995900;28;20026;-74
2022/01/05 08:03:34;;;;;;;10.18;2.22;;;;;;;;;;4995782;28;20030;-74
2022/01/05 08:06:01;;;;;;;12.85;2.50;;;;;;;;;;4995951;28;20026;-77
2022/01/05 08:08:27;;;;;;;11.27;2.42;;;;;;;;;;4995242;28;20425;-71
2022/01/05 08:10:53;;;;;;;13.25;2.53;;;;;;;;;;4995513;28;20034;-78
2022/01/05 08:13:19;;;;;;;12.68;2.92;;;;;;;;;;4979536;28;20049;-80
2022/01/05 08:15:45;;;;;;;14.25;2.85;;;;;;;;;;4996934;28;20026;-78
2022/01/05 08:18:11;;;;;;;10.05;2.30;;;;;;;;;;4996499;28;20022;-75
2022/01/05 08:20:37;;;;;;;12.93;3.10;;;;;;;;;;4995157;28;20061;-72
2022/01/05 08:23:04;;;;;;;9.45;2.47;;;;;;;;;;4995540;28;20355;-73
2022/01/05 08:25:29;;;;;;;13.27;2.35;;;;;;;;;;4994608;28;20053;-74
2022/01/05 08:27:55;;;;;;;11.57;2.75;;;;;;;;;;4994869;28;20026;-74
2022/01/05 08:30:23;;;;;;;12.05;2.90;;;;;;;;;;4994948;28;20030;-79
2022/01/05 08:32:49;;;;;;;9.13;2.35;;;;;;;;;;4997269;28;20367;-76
2022/01/05 08:35:17;;;;;;;16.33;2.67;;;;;;;;;;4996840;28;20022;-77
2022/01/05 08:37:44;;;;;;;14.93;2.58;;;;;;;;;;4995809;28;20378;-76
2022/01/05 08:40:11;;;;;;;10.30;2.38;;;;;;;;;;4978396;28;20117;-77
2022/01/05 08:42:37;;;;;;;8.40;2.28;;;;;;;;;;4995869;28;20071;-71
2022/01/05 08:45:04;;;;;;;15.40;3.03;;;;;;;;;;4977311;28;20397;-71
2022/01/05 08:47:30;;;;;;;12.55;2.85;;;;;;;;;;4994737;28;20045;-73
2022/01/05 08:49:56;;;;;;;6.53;1.90;;;;;;;;;;4994844;28;20023;-70
2022/01/05 08:52:22;;;;;;;12.95;2.63;;;;;;;;;;4995089;28;20042;-76
2022/01/05 08:54:48;;;;;;;14.63;2.85;;;;;;;;;;4995528;28;20442;-76
2022/01/05 08:57:15;;;;;;;11.80;2.75;;;;;;;;;;4995440;28;20026;-77
2022/01/05 08:59:41;;;;;;;16.58;3.35;;;;;;;;;;4995489;28;20531;-73
2022/01/05 09:02:07;;;;;;;12.77;2.83;;;;;;;;;;4977513;28;20034;-76
2022/01/05 09:04:33;;;;;;;11.68;2.90;;;;;;;;;;4994690;28;20030;-75
2022/01/05 09:07:00;;;;;;;20.60;3.38;;;;;;;;;;4994660;28;20070;-76
2022/01/05 09:09:26;;;;;;;9.65;2.72;;;;;;;;;;4994877;28;20026;-75
2022/01/05 09:11:52;;;;;;;13.10;3.30;;;;;;;;;;4994691;28;20045;-74
2022/01/05 09:14:18;;;;;;;11.88;2.67;;;;;;;;;;4994192;28;20425;-73
2022/01/05 09:16:44;;;;;;;12.05;2.88;;;;;;;;;;4994071;28;20034;-73
2022/01/05 09:19:10;;;;;;;18.75;3.78;;;;;;;;;;4993919;28;20398;-72
2022/01/05 09:21:36;;;;;;;13.02;2.72;;;;;;;;;;4976300;28;20026;-73
2022/01/05 09:24:02;;;;;;;11.63;2.92;;;;;;;;;;4976618;28;20532;-73
2022/01/05 09:26:28;;;;;;;14.85;3.35;;;;;;;;;;4994173;28;20027;-75
2022/01/05 09:28:54;;;;;;;16.00;2.90;;;;;;;;;;4976596;28;20149;-74
2022/01/05 09:31:20;;;;;;;12.40;3.10;;;;;;;;;;4994350;28;20577;-76
2022/01/05 09:33:47;;;;;;;15.65;3.38;;;;;;;;;;4977467;28;20513;-71
2022/01/05 09:36:20;;;;;;;14.25;3.15;;;;;;;;;;4974595;28;20035;-69
2022/01/05 09:44:09;;;;;;;19.52;3.25;;;;;;;;;;4976941;28;20030;-79
2022/01/05 09:46:45;;;;;;;15.43;3.15;;;;;;;;;;4986138;28;20106;-77
2022/01/05 09:49:17;;;;;;;13.63;2.92;;;;;;;;;;4987559;28;20108;-77
2022/01/05 09:51:43;;;;;;;17.35;3.55;;;;;;;;;;4996405;28;20085;-77
2022/01/05 09:54:12;;;;;;;19.40;3.53;;;;;;;;;;4996815;28;20409;-78
2022/01/05 09:56:38;;;;;;;15.20;3.13;;;;;;;;;;4996941;28;20023;-72
2022/01/05 09:59:04;;;;;;;25.35;2.95;;;;;;;;;;4994704;28;20101;-73
2022/01/05 10:01:35;;;;;;;20.88;3.45;;;;;;;;;;4993610;28;20037;-73
2022/01/05 10:04:01;;;;;;;15.30;3.42;;;;;;;;;;4993677;28;20038;-74
2022/01/05 10:06:27;;;;;;;25.00;3.47;;;;;;;;;;4976413;28;20041;-74
2022/01/05 10:08:53;;;;;;;17.73;3.42;;;;;;;;;;4993527;28;20030;-73
2022/01/05 10:11:22;;;;;;;21.63;4.47;;;;;;;;;;4993372;28;20382;-74
2022/01/05 10:13:48;;;;;;;22.75;4.15;;;;;;;;;;4994063;28;20072;-70
2022/01/05 10:16:15;;;;;;;29.98;3.92;;;;;;;;;;4993320;28;20050;-70
2022/01/05 10:28:04;;;;;;;18.80;3.47;;;;;;;;;;5101783;27;20409;-71
2022/01/05 10:30:38;;;;;;;20.50;3.20;;;;;;;;;;5090555;28;20107;-70
2022/01/05 10:33:04;;;;;;;21.60;3.60;;;;;;;;;;5102801;28;20114;-71
2022/01/05 10:35:30;;;;;;;19.50;3.58;;;;;;;;;;5111083;28;20047;-70
2022/01/05 10:37:58;;;;;;;18.10;3.50;;;;;;;;;;5110464;28;20455;-69
2022/01/05 10:40:24;;;;;;;25.27;4.10;;;;;;;;;;5110587;28;20093;-71
2022/01/05 10:42:52;;;;;;;18.65;3.55;;;;;;;;;;5110683;28;20024;-71
2022/01/05 10:45:19;;;;;;;15.95;3.28;;;;;;;;;;5110544;28;20020;-70
2022/01/05 10:48:05;;;;;;;18.75;3.38;;;;;;;;;;5110442;28;20583;-69
2022/01/05 10:50:31;;;;;;;17.38;3.20;;;;;;;;;;5110597;28;20027;-69
2022/01/05 10:52:58;;;;;;;13.13;3.03;;;;;;;;;;5110431;28;20044;-71
2022/01/05 10:55:25;;;;;;;14.25;2.95;;;;;;;;;;5093460;28;20025;-70
2022/01/05 10:57:59;;;;;;;15.60;3.35;;;;;;;;;;5083183;28;20032;-70
2022/01/05 11:00:36;;;;;;;17.10;3.30;;;;;;;;;;5081450;28;20059;-72
2022/01/05 11:03:02;;;;;;;15.90;3.50;;;;;;;;;;5090306;28;20028;-74
2022/01/05 11:05:28;;;;;;;10.98;3.00;;;;;;;;;;5090021;28;20020;-73
2022/01/05 11:08:12;;;;;;;11.20;2.88;;;;;;;;;;5089456;28;20042;-73
2022/01/05 11:10:38;;;;;;;16.85;3.50;;;;;;;;;;5086167;28;20024;-72
2022/01/05 11:13:04;;;;;;;20.92;3.15;;;;;;;;;;5088812;28;20029;-73
2022/01/05 11:15:35;;;;;;;12.23;3.15;;;;;;;;;;5089499;28;20063;-72
2022/01/05 11:18:09;;;;;;;17.98;3.28;;;;;;;;;;5089148;28;20028;-72
2022/01/05 11:20:43;;;;;;;14.75;3.10;;;;;;;;;;5089860;28;20020;-72
2022/01/05 11:23:10;;;;;;;14.48;3.00;;;;;;;;;;5089611;28;20032;-74
2022/01/05 11:25:37;;;;;;;15.35;3.20;;;;;;;;;;5089563;28;20039;-72
2022/01/05 11:28:03;;;;;;;14.13;3.08;;;;;;;;;;5109858;28;20505;-74
2022/01/05 11:30:29;;;;;;;14.52;3.13;;;;;;;;;;5109725;28;20022;-74
2022/01/05 11:32:55;;;;;;;15.38;3.63;;;;;;;;;;5111454;28;20102;-74
2022/01/05 11:35:21;;;;;;;21.15;2.50;;;;;;;;;;5109678;28;20422;-73
2022/01/05 11:37:47;;;;;;;18.60;3.00;;;;;;;;;;5104845;28;20364;-73
2022/01/05 11:40:14;;;;;;;14.77;2.90;;;;;;;;;;5096177;28;20471;-72
2022/01/05 11:42:41;;;;;;;12.52;2.85;;;;;;;;;;5096273;28;20364;-73
2022/01/05 11:45:08;;;;;;;19.15;3.72;;;;;;;;;;5095999;28;20024;-73
2022/01/05 11:47:38;;;;;;;13.90;3.40;;;;;;;;;;5096247;28;20036;-73
2022/01/05 11:50:13;;;;;;;10.60;2.83;;;;;;;;;;5096242;28;20099;-72
2022/01/05 11:52:58;;;;;;;12.35;2.90;;;;;;;;;;5095707;28;20534;-73
2022/01/05 11:55:25;;;;;;;13.43;2.90;;;;;;;;;;5096138;28;20028;-73
2022/01/05 11:58:09;;;;;;;15.10;3.40;;;;;;;;;;5096214;28;20031;-72
2022/01/05 12:00:36;;;;;;;11.10;2.53;;;;;;;;;;5095773;28;20032;-72
2022/01/05 12:03:02;;;;;;;13.40;2.95;;;;;;;;;;5095864;28;20080;-74
2022/01/05 12:05:28;;;;;;;13.73;3.30;;;;;;;;;;5077706;28;20103;-74
2022/01/05 12:07:55;;;;;;;16.35;3.30;;;;;;;;;;5095776;28;20498;-75
2022/01/05 12:10:22;;;;;;;16.33;3.03;;;;;;;;;;5095951;28;20472;-74
2022/01/05 12:13:02;;;;;;;11.43;3.10;;;;;;;;;;5095615;28;20036;-75
2022/01/05 12:15:43;;;;;;;16.52;3.08;;;;;;;;;;5095737;28;20051;-74
2022/01/05 12:18:10;;;;;;;13.85;3.25;;;;;;;;;;5095885;28;20032;-74
2022/01/05 12:20:37;;;;;;;15.00;3.20;;;;;;;;;;5095695;28;20021;-74
2022/01/05 12:23:25;;;;;;;16.10;3.90;;;;;;;;;;5096943;28;20024;-71
2022/01/05 12:26:12;;;;;;;15.88;3.47;;;;;;;;;;5078031;28;20063;-74
2022/01/05 12:28:38;;;;;;;11.82;2.65;;;;;;;;;;5095253;28;20036;-73
2022/01/05 12:31:05;;;;;;;16.05;3.40;;;;;;;;;;5076844;28;20024;-70
2022/01/05 12:33:51;;;;;;;14.90;3.55;;;;;;;;;;5111060;28;20020;-71
2022/01/05 12:36:37;;;;;;;56.38;4.45;;;;;;;;;;5097356;28;20050;-74
2022/01/05 12:39:06;;;;;;;11.55;2.63;;;;;;;;;;5097687;28;20023;-75
2022/01/05 12:41:42;;;;;;;12.45;2.88;;;;;;;;;;5115722;28;20024;-75
2022/01/05 12:44:22;;;;;;;15.00;2.95;;;;;;;;;;5115790;28;20092;-75
2022/01/05 12:46:52;;;;;;;16.60;3.10;;;;;;;;;;5115466;28;20028;-74
2022/01/05 12:49:26;;;;;;;11.35;2.58;;;;;;;;;;5115107;28;20111;-73
2022/01/05 12:52:04;;;;;;;20.30;3.70;;;;;;;;;;5115152;28;20076;-74
2022/01/05 12:54:31;;;;;;;14.93;3.05;;;;;;;;;;5115613;28;20031;-74
2022/01/05 12:57:04;;;;;;;9.93;2.55;;;;;;;;;;5115403;28;20032;-75
2022/01/05 12:59:35;;;;;;;13.00;3.05;;;;;;;;;;5115624;28;20379;-73
2022/01/05 13:02:02;;;;;;;14.15;3.90;;;;;;;;;;5115241;28;20028;-75
2022/01/05 13:04:29;;;;;;;16.17;3.35;;;;;;;;;;5115390;28;20019;-75
2022/01/05 13:06:58;;;;;;;13.43;3.20;;;;;;;;;;5114906;28;20085;-73
2022/01/05 13:09:26;;;;;;;18.17;3.47;;;;;;;;;;5115137;28;20474;-75
2022/01/05 13:11:55;;;;;;;18.90;3.78;;;;;;;;;;5114839;28;20035;-75
2022/01/05 13:14:21;;;;;;;18.50;3.28;;;;;;;;;;5096807;28;20027;-71
2022/01/05 13:17:16;;;;;;;13.32;2.88;;;;;;;;;;5098996;28;20515;-75
2022/01/05 13:19:46;;;;;;;12.73;2.80;;;;;;;;;;5081397;28;20640;-74
2022/01/05 13:22:16;;;;;;;14.63;3.13;;;;;;;;;;5094221;28;20024;-74
2022/01/05 13:24:42;;;;;;;13.85;3.80;;;;;;;;;;5094097;28;20047;-75
2022/01/05 13:27:08;;;;;;;12.50;3.15;;;;;;;;;;5093872;28;20091;-74
2022/01/05 13:29:35;;;;;;;15.60;3.60;;;;;;;;;;5092952;28;20367;-70
2022/01/05 13:32:03;;;;;;;14.68;3.45;;;;;;;;;;5097037;28;20019;-70
2022/01/05 13:34:30;;;;;;;11.60;2.83;;;;;;;;;;5105408;28;20474;-74
2022/01/05 13:36:56;;;;;;;15.90;3.28;;;;;;;;;;5093975;28;20069;-73
2022/01/05 13:39:40;;;;;;;13.63;3.10;;;;;;;;;;5094028;28;20396;-73
2022/01/05 13:42:08;;;;;;;12.70;3.15;;;;;;;;;;5093763;28;20016;-70
2022/01/05 13:44:35;;;;;;;31.08;9.32;;;;;;;;;;5074992;28;20475;-73
2022/01/05 13:47:08;;;;;;;42.80;15.80;;;;;;;;;;5094024;28;20032;-69
2022/01/05 13:49:34;;;;;;;56.50;19.77;;;;;;;;;;5085749;28;20026;-73
2022/01/05 13:52:09;;;;;;;55.85;20.27;;;;;;;;;;5093490;28;20035;-73
2022/01/05 13:54:36;;;;;;;53.33;21.02;;;;;;;;;;5075546;28;20019;-72
2022/01/05 13:57:03;;;;;;;49.38;20.05;;;;;;;;;;5093272;28;20020;-76
2022/01/05 13:59:46;;;;;;;46.90;19.50;;;;;;;;;;5093293;28;20055;-71
2022/01/05 14:02:12;;;;;;;53.45;19.20;;;;;;;;;;5093382;28;20024;-73
2022/01/05 14:04:49;;;;;;;43.38;18.23;;;;;;;;;;5093693;28;20535;-76
2022/01/05 14:07:19;;;;;;;49.15;18.58;;;;;;;;;;5093156;28;20064;-74
2022/01/05 14:09:46;;;;;;;42.28;16.58;;;;;;;;;;5075807;28;20027;-74
2022/01/05 14:12:28;;;;;;;47.75;17.52;;;;;;;;;;5093967;28;20028;-75
2022/01/05 14:14:58;;;;;;;51.03;16.87;;;;;;;;;;5075344;28;20077;-75
2022/01/05 14:17:24;;;;;;;42.25;15.60;;;;;;;;;;5093556;28;20099;-76
2022/01/05 14:19:50;;;;;;;36.83;14.57;;;;;;;;;;5093587;28;20098;-75
2022/01/05 14:22:19;;;;;;;41.83;15.55;;;;;;;;;;5093415;28;20066;-74
2022/01/05 14:24:46;;;;;;;39.85;14.50;;;;;;;;;;5093736;28;20028;-74
2022/01/05 14:27:16;;;;;;;32.40;13.27;;;;;;;;;;5093172;28;20048;-75
2022/01/05 14:29:43;;;;;;;42.95;14.05;;;;;;;;;;5093083;28;20044;-74
2022/01/05 14:32:12;;;;;;;32.70;12.55;;;;;;;;;;5098216;28;20012;-75
2022/01/05 14:34:39;;;;;;;31.42;12.50;;;;;;;;;;5113880;28;20065;-75
2022/01/05 14:37:09;;;;;;;30.83;11.95;;;;;;;;;;5113896;28;20767;-76
2022/01/05 14:39:42;;;;;;;31.92;12.57;;;;;;;;;;5113822;28;20469;-76
2022/01/05 14:42:09;;;;;;;30.02;12.57;;;;;;;;;;5114024;28;20039;-75
2022/01/05 14:44:35;;;;;;;31.92;12.32;;;;;;;;;;5113657;28;20058;-76
2022/01/05 14:47:03;;;;;;;33.92;11.25;;;;;;;;;;5095332;28;20043;-76
2022/01/05 14:49:35;;;;;;;34.72;11.25;;;;;;;;;;5113775;28;20535;-75
2022/01/05 14:52:01;;;;;;;27.40;10.90;;;;;;;;;;5113681;28;20028;-75